Time;durP1;ratioP1;P1;durP2;ratioP2;P2;SDS_P1;SDS_P2;PMS_P1;PMS_P2;Temp;Humidity;BMP_temperature;BMP_pressure;BME280_temperature;BME280_humidity;BME280_pressure;Samples;Min_cycle;Max_cycle;Signal;HPM_P1;HPM_P2
2024/01/22 00:01:41;;;;;;;3.78;2.22;;;9.30;86.40;;;;;;5025752;28;20049;-68
2024/01/22 00:04:07;;;;;;;5.10;2.83;;;9.30;86.40;;;;;;5030263;28;20099;-68
2024/01/22 00:06:36;;;;;;;4.53;2.70;;;9.30;86.50;;;;;;5013841;28;20484;-68
2024/01/22 00:09:02;;;;;;;4.32;2.85;;;9.30;86.60;;;;;;5030802;28;20042;-68
2024/01/22 00:11:28;;;;;;;4.00;2.55;;;9.30;86.80;;;;;;4996602;28;20061;-68
2024/01/22 00:13:54;;;;;;;5.15;2.78;;;9.40;86.70;;;;;;4979233;28;20046;-68
2024/01/22 00:16:19;;;;;;;3.90;2.97;;;9.40;86.70;;;;;;5047991;28;20443;-68
2024/01/22 00:18:47;;;;;;;5.97;2.63;;;9.40;86.70;;;;;;4992983;28;20053;-68
2024/01/22 00:21:13;;;;;;;7.07;2.85;;;9.40;86.80;;;;;;5030319;28;20392;-68
2024/01/22 00:23:38;;;;;;;6.28;2.67;;;9.40;86.90;;;;;;5014643;28;20033;-68
2024/01/22 00:26:04;;;;;;;5.32;3.30;;;9.40;87.00;;;;;;5019467;28;20125;-68
2024/01/22 00:28:30;;;;;;;4.43;2.65;;;9.40;86.90;;;;;;5031703;28;20595;-68
2024/01/22 00:30:55;;;;;;;3.67;2.53;;;9.40;87.00;;;;;;5030495;28;20551;-68
2024/01/22 00:33:21;;;;;;;3.90;2.60;;;9.40;87.00;;;;;;4998935;28;20383;-68
2024/01/22 00:35:46;;;;;;;3.38;2.30;;;9.40;86.70;;;;;;5013548;28;20091;-68
2024/01/22 00:38:12;;;;;;;3.15;2.22;;;9.40;87.00;;;;;;5030530;28;20037;-68
2024/01/22 00:40:38;;;;;;;5.30;2.15;;;9.40;86.90;;;;;;4998632;28;20133;-68
2024/01/22 00:43:03;;;;;;;4.63;2.30;;;9.40;87.00;;;;;;5013318;28;20124;-68
2024/01/22 00:45:29;;;;;;;4.47;2.42;;;9.50;87.00;;;;;;5015149;28;20037;-68
2024/01/22 00:47:55;;;;;;;4.40;2.33;;;9.50;87.10;;;;;;5014473;28;20077;-68
2024/01/22 00:50:21;;;;;;;3.75;2.63;;;9.40;87.00;;;;;;4998407;28;20107;-68
2024/01/22 00:52:46;;;;;;;2.30;2.05;;;9.50;87.50;;;;;;5013578;28;20033;-68
2024/01/22 00:55:12;;;;;;;3.60;2.13;;;9.50;87.40;;;;;;4999070;28;20047;-68
2024/01/22 00:57:38;;;;;;;2.70;2.00;;;9.50;87.20;;;;;;5009879;28;20046;-68
2024/01/22 01:00:05;;;;;;;3.38;2.35;;;9.50;87.30;;;;;;5012133;28;20050;-68
2024/01/22 01:02:30;;;;;;;2.83;1.90;;;9.50;87.10;;;;;;5029377;28;20037;-68
2024/01/22 01:04:56;;;;;;;4.05;2.55;;;9.50;87.40;;;;;;5013222;28;20413;-68
2024/01/22 01:07:23;;;;;;;2.45;2.17;;;9.50;87.60;;;;;;5034242;28;20041;-68
2024/01/22 01:09:49;;;;;;;3.92;2.75;;;9.50;87.40;;;;;;4996963;28;20445;-68
2024/01/22 01:12:14;;;;;;;4.28;2.03;;;9.50;87.40;;;;;;4997538;28;20132;-68
2024/01/22 01:14:40;;;;;;;2.30;1.90;;;9.50;87.30;;;;;;5010916;28;20489;-68
2024/01/22 01:17:05;;;;;;;4.30;2.10;;;9.50;87.10;;;;;;4999765;28;20037;-68
2024/01/22 01:19:31;;;;;;;2.25;1.85;;;9.50;86.90;;;;;;5017136;28;20171;-68
2024/01/22 01:21:57;;;;;;;4.40;1.98;;;9.50;87.00;;;;;;5029101;28;20397;-68
2024/01/22 01:24:22;;;;;;;2.55;1.70;;;9.50;87.00;;;;;;4997498;28;20590;-68
2024/01/22 01:26:48;;;;;;;3.20;1.80;;;9.50;86.70;;;;;;5030587;28;20036;-68
2024/01/22 01:29:14;;;;;;;3.35;1.75;;;9.50;86.80;;;;;;4997368;28;20038;-68
2024/01/22 01:31:40;;;;;;;2.95;2.15;;;9.60;86.80;;;;;;5012969;28;20481;-68
2024/01/22 01:34:05;;;;;;;2.95;1.98;;;9.60;87.00;;;;;;5013548;28;20515;-68
2024/01/22 01:36:31;;;;;;;2.28;1.75;;;9.60;87.00;;;;;;5028104;28;20041;-68
2024/01/22 01:38:56;;;;;;;2.97;1.85;;;9.60;87.00;;;;;;4997993;28;20475;-68
2024/01/22 01:41:22;;;;;;;2.28;1.80;;;9.60;86.90;;;;;;4997065;28;20038;-68
2024/01/22 01:43:48;;;;;;;4.43;2.05;;;9.60;86.70;;;;;;4998816;28;20488;-68
2024/01/22 01:46:13;;;;;;;2.17;1.63;;;9.60;86.80;;;;;;4995503;28;20041;-68
2024/01/22 01:48:39;;;;;;;2.60;1.95;;;9.60;86.70;;;;;;4998141;28;20049;-68
2024/01/22 01:51:04;;;;;;;4.63;2.05;;;9.60;86.70;;;;;;5012849;28;20068;-68
2024/01/22 01:53:30;;;;;;;2.78;1.88;;;9.60;86.50;;;;;;4996676;28;20037;-68
2024/01/22 01:55:56;;;;;;;2.15;1.85;;;9.60;86.50;;;;;;4996011;28;20033;-68
2024/01/22 01:58:22;;;;;;;2.85;2.05;;;9.60;86.30;;;;;;4977854;28;20030;-68
2024/01/22 02:00:49;;;;;;;2.10;1.65;;;9.70;86.50;;;;;;5013307;28;20041;-68
2024/01/22 02:03:15;;;;;;;2.47;2.25;;;9.60;86.40;;;;;;5012624;28;20052;-68
2024/01/22 02:05:40;;;;;;;2.42;1.60;;;9.70;86.60;;;;;;5009631;28;20046;-68
2024/01/22 02:08:06;;;;;;;2.38;1.73;;;9.70;86.40;;;;;;4997284;28;20120;-68
2024/01/22 02:10:32;;;;;;;1.63;1.42;;;9.70;86.40;;;;;;5017585;28;20045;-68
2024/01/22 02:12:57;;;;;;;1.52;1.42;;;9.70;86.60;;;;;;5031212;28;20044;-68
2024/01/22 02:15:23;;;;;;;4.72;2.60;;;9.70;86.80;;;;;;5011714;28;20037;-68
2024/01/22 02:17:48;;;;;;;4.53;2.05;;;9.70;86.80;;;;;;5027805;28;20525;-68
2024/01/22 02:20:14;;;;;;;2.08;1.58;;;9.70;86.80;;;;;;4997441;28;20049;-67
2024/01/22 02:22:40;;;;;;;4.60;1.90;;;9.70;87.00;;;;;;5028745;28;20091;-67
2024/01/22 02:25:06;;;;;;;2.50;1.77;;;9.70;87.60;;;;;;5009909;28;20113;-68
2024/01/22 02:27:31;;;;;;;2.60;1.60;;;9.70;87.10;;;;;;4993789;28;20073;-67
2024/01/22 02:29:57;;;;;;;2.38;2.17;;;9.70;87.20;;;;;;5029009;28;20073;-68
2024/01/22 02:32:23;;;;;;;3.38;1.60;;;9.80;87.40;;;;;;5011546;28;20560;-68
2024/01/22 02:34:48;;;;;;;2.15;1.60;;;9.70;87.50;;;;;;5011211;28;20154;-68
2024/01/22 02:37:15;;;;;;;3.22;1.77;;;9.70;87.50;;;;;;5029043;28;20037;-68
2024/01/22 02:39:41;;;;;;;4.15;1.85;;;9.70;87.50;;;;;;5015217;28;20474;-67
2024/01/22 02:42:06;;;;;;;4.20;2.05;;;9.70;87.70;;;;;;4997636;28;20450;-68
2024/01/22 02:44:35;;;;;;;3.65;1.98;;;9.80;87.80;;;;;;5015709;28;20112;-68
2024/01/22 02:47:01;;;;;;;2.13;1.50;;;9.80;88.20;;;;;;5032875;28;20099;-67
2024/01/22 02:49:27;;;;;;;3.65;2.10;;;9.80;88.10;;;;;;4988977;28;20045;-67
2024/01/22 02:51:53;;;;;;;3.13;2.08;;;9.80;88.60;;;;;;4997753;28;20095;-67
2024/01/22 02:54:19;;;;;;;2.55;1.73;;;9.80;89.30;;;;;;5014712;28;20485;-67
2024/01/22 02:56:44;;;;;;;2.45;1.52;;;9.80;88.30;;;;;;5013861;28;20101;-67
2024/01/22 02:59:10;;;;;;;2.85;2.28;;;9.80;88.50;;;;;;5013781;28;20091;-68
2024/01/22 03:01:36;;;;;;;1.98;1.67;;;9.80;88.80;;;;;;5013281;28;20064;-68
2024/01/22 03:04:01;;;;;;;2.83;2.00;;;9.80;88.70;;;;;;5031021;28;20511;-68
2024/01/22 03:06:27;;;;;;;4.68;1.98;;;9.80;89.00;;;;;;4999506;28;20508;-68
2024/01/22 03:08:52;;;;;;;1.77;1.65;;;9.80;89.30;;;;;;4982831;28;20056;-68
2024/01/22 03:11:18;;;;;;;2.10;1.83;;;9.80;89.30;;;;;;5035406;28;20509;-68
2024/01/22 03:13:43;;;;;;;1.95;1.83;;;9.80;89.00;;;;;;5032882;28;20033;-68
2024/01/22 03:16:09;;;;;;;2.83;1.90;;;9.80;89.10;;;;;;5033092;28;20065;-68
2024/01/22 03:18:35;;;;;;;3.80;2.00;;;9.80;89.30;;;;;;5014993;28;20120;-68
2024/01/22 03:21:04;;;;;;;2.65;1.45;;;9.80;89.60;;;;;;4995625;28;20052;-68
2024/01/22 03:23:30;;;;;;;1.52;1.40;;;9.90;89.60;;;;;;4997921;28;20300;-68
2024/01/22 03:25:56;;;;;;;4.03;2.00;;;9.90;89.30;;;;;;5029571;28;20077;-68
2024/01/22 03:28:22;;;;;;;2.42;1.80;;;9.90;89.30;;;;;;5032398;28;20493;-68
2024/01/22 03:30:47;;;;;;;2.03;1.40;;;9.90;89.20;;;;;;5030740;28;20054;-68
2024/01/22 03:33:13;;;;;;;2.55;1.50;;;9.90;89.40;;;;;;5013771;28;20069;-68
2024/01/22 03:35:39;;;;;;;3.22;1.42;;;9.90;89.40;;;;;;5016327;28;20080;-67
2024/01/22 03:38:04;;;;;;;3.05;1.80;;;9.90;89.40;;;;;;5033096;28;20029;-67
2024/01/22 03:40:30;;;;;;;3.38;1.42;;;10.00;89.10;;;;;;5012073;28;20038;-68
2024/01/22 03:42:55;;;;;;;2.45;1.50;;;10.00;89.10;;;;;;5003896;28;20052;-68
2024/01/22 03:45:21;;;;;;;2.35;1.40;;;10.00;89.10;;;;;;5030408;28;20037;-68
2024/01/22 03:47:47;;;;;;;2.10;1.55;;;9.90;89.30;;;;;;5015805;28;20045;-67
2024/01/22 03:50:12;;;;;;;3.58;1.75;;;10.00;89.10;;;;;;5014941;28;20468;-67
2024/01/22 03:52:38;;;;;;;1.42;1.33;;;9.90;89.20;;;;;;5011210;28;20046;-67
2024/01/22 03:55:04;;;;;;;1.73;1.63;;;10.00;89.40;;;;;;5031007;28;20048;-68
2024/01/22 03:57:29;;;;;;;2.10;1.52;;;10.00;89.40;;;;;;5008394;28;20049;-67
2024/01/22 03:59:55;;;;;;;1.58;1.40;;;10.00;89.40;;;;;;5031346;28;20045;-68
2024/01/22 04:02:21;;;;;;;2.60;1.40;;;10.00;89.50;;;;;;5013697;28;21616;-68
2024/01/22 04:04:46;;;;;;;1.80;1.33;;;10.00;89.40;;;;;;5030460;28;20052;-68
2024/01/22 04:07:12;;;;;;;1.05;1.00;;;10.00;89.60;;;;;;5013430;28;20049;-68
2024/01/22 04:09:38;;;;;;;2.40;1.30;;;10.00;89.40;;;;;;5011188;28;20562;-68
2024/01/22 04:12:04;;;;;;;1.50;1.10;;;10.00;89.20;;;;;;5012368;28;20041;-68
2024/01/22 04:14:29;;;;;;;1.75;1.33;;;10.00;89.50;;;;;;4998959;28;20042;-68
2024/01/22 04:16:55;;;;;;;1.83;1.13;;;10.00;89.90;;;;;;5011446;28;20128;-68
2024/01/22 04:19:21;;;;;;;2.75;1.80;;;10.00;89.50;;;;;;5011496;28;20053;-67
2024/01/22 04:21:46;;;;;;;1.73;1.63;;;10.10;89.70;;;;;;4997637;28;20073;-68
2024/01/22 04:24:12;;;;;;;1.45;1.35;;;10.00;89.90;;;;;;4988265;28;20050;-68
2024/01/22 04:26:38;;;;;;;1.83;1.35;;;10.00;90.00;;;;;;5032895;28;20485;-68
2024/01/22 04:29:03;;;;;;;1.23;1.10;;;10.10;90.20;;;;;;5014168;28;20049;-68
2024/01/22 04:31:29;;;;;;;1.30;1.10;;;10.10;90.00;;;;;;5013843;28;20148;-68
2024/01/22 04:33:55;;;;;;;1.30;1.13;;;10.10;90.00;;;;;;5011603;28;20042;-68
2024/01/22 04:36:21;;;;;;;1.90;1.05;;;10.10;90.10;;;;;;4997344;28;20492;-68
2024/01/22 04:38:46;;;;;;;2.47;1.20;;;10.10;90.10;;;;;;5010496;28;20128;-68
2024/01/22 04:41:12;;;;;;;1.50;1.20;;;10.10;90.10;;;;;;5014283;28;20048;-68
2024/01/22 04:43:37;;;;;;;1.42;1.20;;;10.10;90.20;;;;;;5030016;28;20052;-67
2024/01/22 04:46:03;;;;;;;1.17;1.02;;;10.10;90.10;;;;;;5046802;28;20042;-67
2024/01/22 04:48:29;;;;;;;1.15;1.00;;;10.10;90.00;;;;;;5011635;28;20077;-68
2024/01/22 04:50:54;;;;;;;0.88;0.82;;;10.10;89.90;;;;;;5011202;28;20080;-67
2024/01/22 04:53:20;;;;;;;1.35;1.10;;;10.20;89.90;;;;;;5014176;28;20091;-68
2024/01/22 04:55:46;;;;;;;1.23;0.70;;;10.20;89.90;;;;;;5003172;28;20107;-67
2024/01/22 04:58:11;;;;;;;1.15;0.93;;;10.20;89.80;;;;;;4999294;28;20068;-68
2024/01/22 05:00:37;;;;;;;1.63;1.05;;;10.20;89.90;;;;;;5029256;28;20051;-67
2024/01/22 05:03:04;;;;;;;0.88;0.80;;;10.20;89.70;;;;;;5013815;28;20286;-68
2024/01/22 05:05:33;;;;;;;2.53;1.17;;;10.20;89.90;;;;;;5012000;28;20409;-67
2024/01/22 05:07:59;;;;;;;1.42;1.20;;;10.20;89.90;;;;;;5031347;28;20443;-67
2024/01/22 05:10:24;;;;;;;1.20;0.90;;;10.20;89.90;;;;;;5012484;28;20104;-67
2024/01/22 05:12:50;;;;;;;0.85;0.60;;;10.20;90.00;;;;;;5011552;28;20035;-68
2024/01/22 05:15:15;;;;;;;0.95;0.95;;;10.20;89.90;;;;;;5028681;28;20060;-67
2024/01/22 05:17:41;;;;;;;1.70;0.75;;;10.20;89.90;;;;;;4997191;28;20029;-68
2024/01/22 05:20:08;;;;;;;1.13;0.80;;;10.30;90.00;;;;;;5013054;28;20042;-68
2024/01/22 05:22:34;;;;;;;0.88;0.85;;;10.20;89.70;;;;;;5014349;28;20033;-68
2024/01/22 05:25:00;;;;;;;0.80;0.80;;;10.30;89.70;;;;;;4997056;28;20111;-68
2024/01/22 05:27:25;;;;;;;1.08;0.77;;;10.30;89.50;;;;;;4994486;28;20490;-67
2024/01/22 05:29:51;;;;;;;1.30;0.80;;;10.30;89.60;;;;;;4997394;28;20042;-67
2024/01/22 05:32:17;;;;;;;0.85;0.85;;;10.30;89.40;;;;;;5028846;28;20386;-67
2024/01/22 05:34:42;;;;;;;0.80;0.80;;;10.30;89.40;;;;;;4999192;28;20037;-68
2024/01/22 05:37:08;;;;;;;0.85;0.85;;;10.30;89.70;;;;;;5039572;28;20161;-67
2024/01/22 05:39:33;;;;;;;1.30;0.80;;;10.30;89.50;;;;;;5016604;28;20417;-68
2024/01/22 05:41:59;;;;;;;0.70;0.70;;;10.40;89.60;;;;;;4996498;28;20045;-68
2024/01/22 05:44:25;;;;;;;1.00;0.73;;;10.30;89.80;;;;;;5012538;28;20052;-68
2024/01/22 05:46:51;;;;;;;0.80;0.80;;;10.30;89.70;;;;;;5029859;28;20041;-68
2024/01/22 05:49:18;;;;;;;1.58;0.82;;;10.40;89.70;;;;;;4995898;28;20064;-68
2024/01/22 05:51:44;;;;;;;0.85;0.85;;;10.30;89.70;;;;;;5013597;28;20037;-67
2024/01/22 05:54:10;;;;;;;1.27;0.70;;;10.30;89.40;;;;;;4969695;28;20385;-68
2024/01/22 05:56:35;;;;;;;0.80;0.80;;;10.40;89.30;;;;;;5013205;28;20045;-68
2024/01/22 05:59:01;;;;;;;2.17;1.00;;;10.40;89.20;;;;;;5013100;28;20037;-67
2024/01/22 06:01:28;;;;;;;0.70;0.70;;;10.40;89.10;;;;;;5027843;28;20045;-68
2024/01/22 06:03:54;;;;;;;1.00;0.73;;;10.40;89.00;;;;;;4996662;28;20092;-67
2024/01/22 06:06:20;;;;;;;0.77;0.77;;;10.40;89.00;;;;;;5016072;28;20041;-68
2024/01/22 06:08:46;;;;;;;1.30;0.88;;;10.40;88.80;;;;;;4979801;28;20085;-68
2024/01/22 06:11:12;;;;;;;0.85;0.65;;;10.40;89.00;;;;;;4995826;28;20055;-68
2024/01/22 06:13:44;;;;;;;1.92;0.77;;;10.50;89.00;;;;;;5013535;28;20049;-68
2024/01/22 06:16:11;;;;;;;0.70;0.60;;;10.50;89.00;;;;;;5013461;28;20041;-67
2024/01/22 06:18:37;;;;;;;2.85;0.82;;;10.40;88.70;;;;;;5000936;28;20049;-67
2024/01/22 06:21:04;;;;;;;0.65;0.60;;;10.50;88.80;;;;;;5011551;28;20041;-67
2024/01/22 06:23:30;;;;;;;1.05;0.80;;;10.50;88.70;;;;;;5029264;28;20068;-67
2024/01/22 06:25:58;;;;;;;0.70;0.70;;;10.50;88.70;;;;;;5008788;28;20529;-68
2024/01/22 06:28:29;;;;;;;0.70;0.65;;;10.50;88.70;;;;;;5011299;28;20773;-68
2024/01/22 06:30:55;;;;;;;1.25;0.60;;;10.50;88.70;;;;;;4993786;28;20120;-68
2024/01/22 06:33:21;;;;;;;0.88;0.63;;;10.50;88.70;;;;;;4996500;28;20331;-67
2024/01/22 06:35:46;;;;;;;0.60;0.60;;;10.50;88.40;;;;;;4995434;28;20037;-67
2024/01/22 06:38:12;;;;;;;1.05;0.70;;;10.50;88.40;;;;;;5013483;28;20495;-68
2024/01/22 06:40:38;;;;;;;0.70;0.70;;;10.60;88.40;;;;;;4994488;28;20048;-67
2024/01/22 06:43:04;;;;;;;0.57;0.57;;;10.60;88.40;;;;;;5012887;28;20037;-68
2024/01/22 06:45:29;;;;;;;1.98;0.70;;;10.60;88.30;;;;;;5028049;28;20064;-68
2024/01/22 06:47:55;;;;;;;2.65;0.85;;;10.60;88.20;;;;;;5029546;28;20497;-68
2024/01/22 06:50:22;;;;;;;0.57;0.57;;;10.60;88.20;;;;;;5009823;28;20038;-67
2024/01/22 06:52:48;;;;;;;1.17;0.80;;;10.60;88.50;;;;;;4995301;28;20124;-68
2024/01/22 06:55:13;;;;;;;0.77;0.57;;;10.60;88.40;;;;;;4991502;28;20132;-68
2024/01/22 06:57:39;;;;;;;0.50;0.50;;;10.60;88.20;;;;;;5028334;28;20037;-67
2024/01/22 07:00:07;;;;;;;0.68;0.60;;;10.60;88.20;;;;;;5010594;28;20034;-67
2024/01/22 07:02:33;;;;;;;1.23;0.60;;;10.60;88.10;;;;;;5034299;28;20412;-67
2024/01/22 07:04:59;;;;;;;1.15;0.70;;;10.60;88.10;;;;;;5012555;28;20042;-67
2024/01/22 07:07:25;;;;;;;0.60;0.60;;;10.60;88.30;;;;;;5028970;28;20091;-67
2024/01/22 07:09:52;;;;;;;0.50;0.50;;;10.60;88.20;;;;;;4976838;28;20045;-67
2024/01/22 07:12:19;;;;;;;0.52;0.52;;;10.70;88.30;;;;;;5010635;28;20378;-67
2024/01/22 07:14:45;;;;;;;0.70;0.57;;;10.70;88.20;;;;;;4995349;28;20453;-67
2024/01/22 07:17:13;;;;;;;1.67;0.60;;;10.70;88.10;;;;;;5011925;28;20033;-68
2024/01/22 07:19:39;;;;;;;0.68;0.68;;;10.70;88.10;;;;;;4996168;28;20119;-68
2024/01/22 07:22:04;;;;;;;0.60;0.50;;;10.70;88.00;;;;;;5030661;28;20044;-68
2024/01/22 07:24:31;;;;;;;0.80;0.80;;;10.70;87.90;;;;;;5015211;28;21266;-67
2024/01/22 07:26:57;;;;;;;0.70;0.50;;;10.70;87.80;;;;;;5031677;28;20045;-68
2024/01/22 07:29:22;;;;;;;0.73;0.60;;;10.70;87.70;;;;;;4998725;28;20065;-68
2024/01/22 07:31:48;;;;;;;0.85;0.73;;;10.70;87.80;;;;;;4997492;28;20040;-67
2024/01/22 07:34:13;;;;;;;0.60;0.60;;;10.70;87.70;;;;;;5014887;28;20041;-68
2024/01/22 07:36:39;;;;;;;1.20;0.75;;;10.80;87.90;;;;;;5014229;28;20065;-68
2024/01/22 07:39:07;;;;;;;0.68;0.65;;;10.80;87.90;;;;;;5031814;28;20119;-68
2024/01/22 07:41:36;;;;;;;;;;;10.80;87.80;;;;;;4998853;28;20399;-68
2024/01/22 07:44:02;;;;;;;2.25;0.80;;;10.80;87.70;;;;;;5016405;28;20350;-68
2024/01/22 07:46:28;;;;;;;1.50;0.90;;;10.80;88.00;;;;;;5011490;28;20069;-68
2024/01/22 07:48:54;;;;;;;2.17;0.97;;;10.80;88.10;;;;;;5014688;28;20057;-68
2024/01/22 07:51:20;;;;;;;2.25;1.27;;;10.80;88.30;;;;;;5065393;28;20038;-67
2024/01/22 07:53:46;;;;;;;3.13;1.00;;;10.80;88.20;;;;;;5015579;28;20034;-67
2024/01/22 07:56:12;;;;;;;1.52;0.80;;;10.80;88.10;;;;;;5031094;28;20098;-68
2024/01/22 07:58:39;;;;;;;1.95;0.88;;;10.80;88.10;;;;;;4998864;28;20102;-68
2024/01/22 08:01:05;;;;;;;2.33;0.73;;;10.80;88.20;;;;;;5011686;28;20524;-68
2024/01/22 08:03:31;;;;;;;1.33;1.00;;;10.80;88.10;;;;;;5011147;28;20120;-68
2024/01/22 08:05:58;;;;;;;3.13;1.30;;;10.80;88.00;;;;;;4996619;28;20120;-68
2024/01/22 08:08:24;;;;;;;2.70;1.20;;;10.90;88.00;;;;;;4982353;28;20389;-68
2024/01/22 08:10:49;;;;;;;1.85;1.15;;;10.90;88.10;;;;;;5046292;28;20049;-68
2024/01/22 08:13:15;;;;;;;2.75;1.23;;;10.90;88.00;;;;;;5013051;28;20033;-67
2024/01/22 08:15:41;;;;;;;1.50;1.00;;;10.90;88.00;;;;;;4998018;28;20044;-68
2024/01/22 08:18:07;;;;;;;3.92;1.55;;;10.90;88.00;;;;;;4984729;28;20400;-68
2024/01/22 08:20:32;;;;;;;2.30;1.10;;;10.90;87.90;;;;;;5031379;28;20049;-68
2024/01/22 08:22:58;;;;;;;3.28;1.10;;;10.90;87.90;;;;;;4989196;28;20509;-67
2024/01/22 08:25:28;;;;;;;2.80;1.05;;;10.90;87.90;;;;;;5026151;28;20092;-68
2024/01/22 08:27:54;;;;;;;6.70;2.58;;;10.90;87.80;;;;;;5026898;28;20038;-68
2024/01/22 08:30:20;;;;;;;5.95;1.80;;;11.00;89.80;;;;;;5014104;28;20049;-67
2024/01/22 08:32:46;;;;;;;6.43;2.30;;;11.00;91.20;;;;;;5001350;28;20099;-67
2024/01/22 08:35:12;;;;;;;5.72;1.75;;;11.00;92.50;;;;;;5013014;28;20508;-67
2024/01/22 08:37:39;;;;;;;6.80;1.83;;;11.00;92.30;;;;;;5030319;28;20408;-67
2024/01/22 08:40:06;;;;;;;5.63;1.90;;;11.10;92.10;;;;;;5033902;28;20107;-67
2024/01/22 08:42:34;;;;;;;5.40;1.80;;;11.10;92.00;;;;;;4998967;28;20041;-67
2024/01/22 08:45:01;;;;;;;5.38;1.48;;;11.10;91.80;;;;;;4996748;28;20053;-67
2024/01/22 08:47:26;;;;;;;3.15;1.50;;;11.10;91.70;;;;;;5014114;28;20133;-68
2024/01/22 08:49:52;;;;;;;4.75;1.60;;;11.10;91.50;;;;;;5030664;28;20118;-67
2024/01/22 08:52:18;;;;;;;4.45;1.40;;;11.10;91.50;;;;;;4997860;28;20037;-67
2024/01/22 08:54:43;;;;;;;2.65;1.27;;;11.10;91.30;;;;;;4997189;28;20048;-67
2024/01/22 08:57:09;;;;;;;4.40;1.15;;;11.10;91.30;;;;;;4998617;28;20041;-67
2024/01/22 08:59:35;;;;;;;3.78;1.00;;;11.10;91.10;;;;;;4997086;28;20049;-67
2024/01/22 09:02:00;;;;;;;2.53;1.10;;;11.10;91.00;;;;;;5031191;28;20128;-67
2024/01/22 09:04:26;;;;;;;3.65;1.20;;;11.10;91.00;;;;;;5011986;28;20048;-67
2024/01/22 09:06:51;;;;;;;3.67;1.30;;;11.10;90.90;;;;;;5014010;28;20477;-67
2024/01/22 09:09:18;;;;;;;3.15;1.25;;;11.10;90.90;;;;;;5016694;28;20049;-67
2024/01/22 09:11:44;;;;;;;1.88;1.17;;;11.10;90.80;;;;;;4981199;28;20099;-67
2024/01/22 09:14:09;;;;;;;5.45;1.10;;;11.10;90.70;;;;;;4998154;28;20041;-68
2024/01/22 09:16:35;;;;;;;2.97;1.20;;;11.10;90.60;;;;;;4997989;28;20095;-67
2024/01/22 09:19:01;;;;;;;3.13;1.23;;;11.10;90.70;;;;;;5030402;28;20064;-67
2024/01/22 09:21:27;;;;;;;3.63;1.38;;;11.20;90.70;;;;;;5011955;28;20092;-67
2024/01/22 09:23:52;;;;;;;2.97;1.25;;;11.20;90.60;;;;;;5013443;28;20893;-67
2024/01/22 09:26:18;;;;;;;1.98;1.10;;;11.20;90.50;;;;;;5060473;28;20136;-67
2024/01/22 09:28:43;;;;;;;2.00;1.13;;;11.20;90.50;;;;;;4996675;28;20196;-67
2024/01/22 09:31:09;;;;;;;2.65;1.10;;;11.20;90.50;;;;;;5028679;28;20056;-67
2024/01/22 09:33:35;;;;;;;3.47;1.20;;;11.20;90.40;;;;;;5010850;28;20468;-67
2024/01/22 09:36:03;;;;;;;3.13;1.17;;;11.20;90.30;;;;;;5010239;28;20099;-68
2024/01/22 09:38:29;;;;;;;1.15;0.88;;;11.20;90.30;;;;;;4995366;28;20430;-67
2024/01/22 09:40:54;;;;;;;2.92;1.40;;;11.20;90.20;;;;;;5029673;28;20037;-67
2024/01/22 09:43:20;;;;;;;4.70;1.80;;;11.20;90.30;;;;;;5012438;28;20628;-68
2024/01/22 09:45:49;;;;;;;2.00;1.20;;;11.20;90.20;;;;;;5026482;28;20044;-67
2024/01/22 09:48:15;;;;;;;4.10;1.55;;;11.20;90.20;;;;;;4980842;28;20041;-67
2024/01/22 09:50:41;;;;;;;6.65;2.45;;;11.30;90.20;;;;;;4997167;28;20172;-67
2024/01/22 09:53:10;;;;;;;6.10;1.83;;;11.30;90.40;;;;;;5009851;28;20073;-67
2024/01/22 09:55:40;;;;;;;11.00;3.92;;;11.30;90.50;;;;;;5008997;28;20408;-67
2024/01/22 09:58:08;;;;;;;7.65;2.50;;;11.30;90.60;;;;;;4998523;28;20049;-67
2024/01/22 10:00:34;;;;;;;4.85;1.70;;;11.30;90.50;;;;;;4997761;28;20045;-67
2024/01/22 10:03:00;;;;;;;4.28;1.77;;;11.30;90.40;;;;;;4996655;28;20042;-67
2024/01/22 10:05:26;;;;;;;5.53;2.22;;;11.30;90.30;;;;;;4996117;28;20068;-67
2024/01/22 10:07:51;;;;;;;5.32;1.90;;;11.30;90.30;;;;;;4995344;28;20041;-67
2024/01/22 10:10:17;;;;;;;5.50;1.90;;;11.30;90.20;;;;;;5013065;28;20509;-67
2024/01/22 10:13:07;;;;;;;8.45;2.75;;;11.30;90.20;;;;;;5011146;28;20046;-68
2024/01/22 10:15:36;;;;;;;5.20;1.92;;;11.30;90.30;;;;;;5013679;28;20048;-67
2024/01/22 10:18:15;;;;;;;6.90;2.13;;;11.30;90.20;;;;;;5029251;28;20034;-68
2024/01/22 10:20:44;;;;;;;8.25;2.88;;;11.30;90.20;;;;;;4997187;28;20045;-67
2024/01/22 10:23:11;;;;;;;7.72;2.50;;;11.30;90.10;;;;;;5010926;28;20042;-68
2024/01/22 10:25:36;;;;;;;5.22;2.03;;;11.30;90.20;;;;;;5011464;28;20046;-67
2024/01/22 10:28:14;;;;;;;3.72;1.95;;;11.40;90.10;;;;;;4996500;28;20049;-67
2024/01/22 10:30:41;;;;;;;;;;;11.40;90.20;;;;;;5011673;28;20045;-67
2024/01/22 10:33:11;;;;;;;7.90;2.67;;;11.40;90.10;;;;;;5030425;28;19921;-67
2024/01/22 10:35:37;;;;;;;11.32;3.60;;;11.40;90.00;;;;;;5060517;28;20519;-68
2024/01/22 10:38:06;;;;;;;6.60;2.80;;;11.40;90.30;;;;;;5009961;28;20033;-68
2024/01/22 10:40:32;;;;;;;11.07;3.08;;;11.40;90.20;;;;;;5010275;28;20041;-68
2024/01/22 10:42:58;;;;;;;8.15;3.20;;;11.40;90.10;;;;;;5012730;28;20489;-68
2024/01/22 10:45:25;;;;;;;9.73;3.50;;;11.40;90.10;;;;;;5030684;28;20037;-68
2024/01/22 10:47:50;;;;;;;9.00;3.20;;;11.40;90.10;;;;;;4997309;28;20400;-68
2024/01/22 10:50:16;;;;;;;7.57;2.83;;;11.40;90.50;;;;;;4996260;28;20042;-68
2024/01/22 10:52:42;;;;;;;7.45;3.22;;;11.40;90.10;;;;;;4995943;28;20042;-68
2024/01/22 10:55:08;;;;;;;15.65;4.65;;;11.40;90.00;;;;;;4982879;28;20068;-68
2024/01/22 10:57:37;;;;;;;12.70;3.85;;;11.40;90.10;;;;;;5015649;28;20477;-68
2024/01/22 11:00:06;;;;;;;10.32;3.08;;;11.40;90.30;;;;;;5000475;28;20041;-68
2024/01/22 11:02:34;;;;;;;7.82;3.30;;;11.40;90.10;;;;;;4999859;28;20120;-68
2024/01/22 11:05:12;;;;;;;15.85;4.15;;;11.40;90.00;;;;;;5014873;28;20053;-68
2024/01/22 11:07:39;;;;;;;5.85;2.83;;;11.40;90.10;;;;;;5026607;28;20077;-68
2024/01/22 11:10:05;;;;;;;13.18;3.83;;;11.50;90.10;;;;;;5016225;28;20041;-68
2024/01/22 11:12:34;;;;;;;9.30;3.05;;;11.40;90.00;;;;;;5033156;28;20421;-68
2024/01/22 11:14:59;;;;;;;9.50;3.53;;;11.50;90.20;;;;;;4999889;28;20080;-68
2024/01/22 11:17:25;;;;;;;13.18;4.07;;;11.50;90.10;;;;;;5012816;28;20069;-68
2024/01/22 11:19:51;;;;;;;13.68;4.88;;;11.50;90.00;;;;;;4998628;28;20062;-68
2024/01/22 11:22:23;;;;;;;12.75;3.35;;;11.50;90.10;;;;;;5000319;28;20053;-68
2024/01/22 11:25:01;;;;;;;12.68;3.58;;;11.50;90.10;;;;;;5015636;28;20521;-68
2024/01/22 11:27:40;;;;;;;11.43;3.60;;;11.50;90.10;;;;;;5002975;28;20079;-68
2024/01/22 11:30:21;;;;;;;9.45;4.10;;;11.50;90.00;;;;;;5001492;28;20046;-68
2024/01/22 11:32:47;;;;;;;14.00;4.75;;;11.50;89.90;;;;;;5032574;28;20042;-69
2024/01/22 11:35:13;;;;;;;10.70;3.88;;;11.50;90.10;;;;;;5000071;28;20103;-68
2024/01/22 11:37:40;;;;;;;8.65;3.83;;;11.50;90.10;;;;;;5026971;28;20505;-68
2024/01/22 11:40:07;;;;;;;12.18;3.85;;;11.50;90.10;;;;;;5031797;28;20049;-68
2024/01/22 11:42:33;;;;;;;10.02;3.50;;;11.50;90.00;;;;;;4999874;28;20095;-68
2024/01/22 11:45:15;;;;;;;10.02;3.78;;;11.50;89.80;;;;;;5032516;28;20046;-68
2024/01/22 11:47:41;;;;;;;17.60;5.22;;;11.50;89.70;;;;;;5014738;28;20053;-68
2024/01/22 11:50:08;;;;;;;13.32;4.55;;;11.60;90.30;;;;;;5015406;28;20489;-68
2024/01/22 11:52:34;;;;;;;9.45;4.22;;;11.50;90.30;;;;;;5032813;28;20037;-68
2024/01/22 11:55:01;;;;;;;9.00;3.45;;;11.50;89.90;;;;;;5012890;28;20493;-68
2024/01/22 11:57:29;;;;;;;15.20;4.82;;;11.50;89.80;;;;;;4996625;28;20515;-68
2024/01/22 12:00:05;;;;;;;14.38;5.00;;;11.50;89.80;;;;;;5014708;28;20041;-68
2024/01/22 12:02:34;;;;;;;11.63;3.53;;;11.60;90.10;;;;;;5007528;28;20038;-68
2024/01/22 12:05:12;;;;;;;16.92;4.35;;;11.60;90.10;;;;;;5028664;28;20541;-68
2024/01/22 12:07:42;;;;;;;13.55;4.85;;;11.60;90.00;;;;;;5016103;28;20064;-68
2024/01/22 12:10:28;;;;;;;9.13;3.47;;;11.60;90.10;;;;;;4983269;28;20045;-68
2024/01/22 12:13:03;;;;;;;19.25;5.65;;;11.60;90.30;;;;;;5014326;28;20386;-68
2024/01/22 12:15:31;;;;;;;10.32;4.00;;;11.60;90.00;;;;;;5026017;28;20040;-68
2024/01/22 12:17:57;;;;;;;10.77;4.22;;;11.60;90.20;;;;;;4996927;28;20038;-68
2024/01/22 12:20:23;;;;;;;10.68;3.67;;;11.60;90.00;;;;;;5004036;28;20054;-68
2024/01/22 12:22:59;;;;;;;18.58;5.30;;;11.60;90.00;;;;;;4996144;28;20053;-68
2024/01/22 12:25:38;;;;;;;9.52;3.38;;;11.60;90.00;;;;;;4998511;28;20037;-68
2024/01/22 12:28:10;;;;;;;13.50;3.97;;;11.60;89.90;;;;;;5012111;28;20046;-68
2024/01/22 12:30:37;;;;;;;12.25;4.10;;;11.60;89.80;;;;;;5008678;28;20046;-68
2024/01/22 12:33:02;;;;;;;14.85;4.68;;;11.60;89.80;;;;;;5032131;28;20040;-68
2024/01/22 12:35:28;;;;;;;11.10;3.97;;;11.60;89.70;;;;;;5030297;28;20045;-68
2024/01/22 12:37:54;;;;;;;10.50;3.63;;;11.60;89.80;;;;;;4998758;28;20037;-68
2024/01/22 12:40:20;;;;;;;10.23;3.67;;;11.60;89.60;;;;;;5014870;28;20072;-68
2024/01/22 12:42:47;;;;;;;8.68;3.97;;;11.60;89.50;;;;;;5013650;28;20676;-68
2024/01/22 12:45:22;;;;;;;11.27;3.72;;;11.60;89.50;;;;;;5013175;28;20046;-68